Voorhees, New Jersey
Current Conditions -  °F | °C
As of 10:54 AM on Thursday 29 Jan 2015 (Local Time) from KVAY Reporting Station
Clear Clear  
Wind Chill: 21°   Ceiling: Unl
Heat Index: 26°   Visibility: 10mi
Dew Point:   Wind: 5mph
Humidity: 44%   Direction: 70°ENE
Pressure: 30.31"   Gusts: NA
Location:  39.85°N, 74.96°W
Report Text: KVAY 291554Z AUTO 07004KT 10SM CLR M03/M14 A3031 RMK AO2 SLP264 T10331139
Loading
Personal Weather Stations






























Interactive Weather Map New forecast layout! Learn more

10-Day Weather Forecast

Advertisements
Track Severe Weather on mobile